Time;durP1;ratioP1;P1;durP2;ratioP2;P2;SDS_P1;SDS_P2;PMS_P1;PMS_P2;Temp;Humidity;BMP_temperature;BMP_pressure;BME280_temperature;BME280_humidity;BME280_pressure;Samples;Min_cycle;Max_cycle;Signal;HPM_P1;HPM_P2
2022/05/28 00:00:50;;;;;;;;;;;;;;;;;;4975646;28;20438;-63
2022/05/28 00:03:18;;;;;;;;;;;;;;;;;;4975967;28;20307;-63
2022/05/28 00:05:44;;;;;;;;;;;;;;;;;;4975930;28;19929;-63
2022/05/28 00:08:11;;;;;;;;;;;;;;;;;;4975691;28;19922;-64
2022/05/28 00:10:38;;;;;;;;;;;;;;;;;;4975654;28;19929;-63
2022/05/28 00:13:06;;;;;;;;;;;;;;;;;;4975924;28;20001;-63
2022/05/28 00:15:33;;;;;;;;;;;;;;;;;;4975756;28;19922;-63
2022/05/28 00:18:01;;;;;;;;;;;;;;;;;;4975798;28;20008;-63
2022/05/28 00:20:27;;;;;;;;;;;;;;;;;;4975607;28;19926;-64
2022/05/28 00:22:54;;;;;;;;;;;;;;;;;;4975390;28;20397;-63
2022/05/28 00:25:21;;;;;;;;;;;;;;;;;;4975610;28;20295;-64
2022/05/28 00:27:47;;;;;;;;;;;;;;;;;;4975729;28;20490;-64
2022/05/28 00:30:17;;;;;;;;;;;;;;;;;;4975493;28;19922;-64
2022/05/28 00:32:44;;;;;;;;;;;;;;;;;;4975341;28;19922;-63
2022/05/28 00:35:12;;;;;;;;;;;;;;;;;;4975337;28;19922;-64
2022/05/28 00:37:39;;;;;;;;;;;;;;;;;;4975311;28;19922;-64
2022/05/28 00:40:07;;;;;;;;;;;;;;;;;;4976061;28;19923;-63
2022/05/28 00:42:34;;;;;;;;;;;;;;;;;;4975365;28;20310;-64
2022/05/28 00:45:01;;;;;;;;;;;;;;;;;;4975396;28;19929;-63
2022/05/28 00:47:29;;;;;;;;;;;;;;;;;;4975088;28;20291;-63
2022/05/28 00:49:55;;;;;;;;;;;;;;;;;;4975195;28;20297;-63
2022/05/28 00:52:24;;;;;;;;;;;;;;;;;;4974761;28;20344;-63
2022/05/28 00:54:51;;;;;;;;;;;;;;;;;;4975435;28;20397;-65
2022/05/28 00:57:18;;;;;;;;;;;;;;;;;;4975293;28;19926;-64
2022/05/28 00:59:45;;;;;;;;;;;;;;;;;;4992678;28;19922;-64
2022/05/28 01:02:14;;;;;;;;;;;;;;;;;;4994174;28;19929;-63
2022/05/28 01:04:46;;;;;;;;;;;;;;;;;;4994135;28;20281;-63
2022/05/28 01:07:16;;;;;;;;;;;;;;;;;;4993949;28;19921;-64
2022/05/28 01:09:48;;;;;;;;;;;;;;;;;;4994381;28;19922;-64
2022/05/28 01:12:15;;;;;;;;;;;;;;;;;;4994180;28;19921;-64
2022/05/28 01:14:47;;;;;;;;;;;;;;;;;;4993787;28;20015;-64
2022/05/28 01:17:16;;;;;;;;;;;;;;;;;;4994289;28;20393;-61
2022/05/28 01:19:53;;;;;;;;;;;;;;;;;;4994294;28;19921;-61
2022/05/28 01:22:23;;;;;;;;;;;;;;;;;;4993777;28;20395;-62
2022/05/28 01:24:53;;;;;;;;;;;;;;;;;;4993978;28;19921;-61
2022/05/28 01:27:23;;;;;;;;;;;;;;;;;;4993968;28;19969;-62
2022/05/28 01:29:51;;;;;;;;;;;;;;;;;;4993634;28;19921;-62
2022/05/28 01:32:19;;;;;;;;;;;;;;;;;;4993566;28;20273;-63
2022/05/28 01:34:47;;;;;;;;;;;;;;;;;;4993514;28;19928;-62
2022/05/28 01:37:15;;;;;;;;;;;;;;;;;;4993864;28;19926;-63
2022/05/28 01:39:43;;;;;;;;;;;;;;;;;;4993577;28;19922;-62
2022/05/28 01:42:10;;;;;;;;;;;;;;;;;;4993481;28;19921;-63
2022/05/28 01:44:40;;;;;;;;;;;;;;;;;;4993301;28;20331;-63
2022/05/28 01:47:07;;;;;;;;;;;;;;;;;;4993604;28;19921;-62
2022/05/28 01:49:34;;;;;;;;;;;;;;;;;;4993827;28;20028;-61
2022/05/28 01:52:02;;;;;;;;;;;;;;;;;;4993192;28;19921;-63
2022/05/28 01:54:34;;;;;;;;;;;;;;;;;;4993519;28;20017;-61
2022/05/28 01:57:01;;;;;;;;;;;;;;;;;;4993455;28;19928;-61
2022/05/28 01:59:28;;;;;;;;;;;;;;;;;;4978115;28;19977;-62
2022/05/28 02:01:57;;;;;;;;;;;;;;;;;;4973982;28;20335;-62
2022/05/28 02:04:24;;;;;;;;;;;;;;;;;;4973954;28;19968;-62
2022/05/28 02:06:51;;;;;;;;;;;;;;;;;;4974077;28;20106;-63
2022/05/28 02:09:19;;;;;;;;;;;;;;;;;;4974331;28;20313;-62
2022/05/28 02:12:06;;;;;;;;;;;;;;;;;;4973682;28;20402;-61
2022/05/28 02:14:42;;;;;;;;;;;;;;;;;;4973746;28;19926;-62
2022/05/28 02:17:13;;;;;;;;;;;;;;;;;;4973916;28;19922;-61
2022/05/28 02:19:48;;;;;;;;;;;;;;;;;;4972894;28;20029;-62
2022/05/28 02:22:18;;;;;;;;;;;;;;;;;;4973769;28;20375;-61
2022/05/28 02:24:47;;;;;;;;;;;;;;;;;;4973876;28;19985;-62
2022/05/28 02:27:15;;;;;;;;;;;;;;;;;;4973738;28;19929;-62
2022/05/28 02:29:42;;;;;;;;;;;;;;;;;;4973627;28;19969;-62
2022/05/28 02:32:18;;;;;;;;;;;;;;;;;;4973380;28;19932;-63
2022/05/28 02:34:45;;;;;;;;;;;;;;;;;;4973383;28;19929;-63
2022/05/28 02:37:14;;;;;;;;;;;;;;;;;;4973939;28;20005;-63
2022/05/28 02:39:40;;;;;;;;;;;;;;;;;;4973555;28;19926;-61
2022/05/28 02:42:07;;;;;;;;;;;;;;;;;;4973315;28;20358;-63
2022/05/28 02:44:34;;;;;;;;;;;;;;;;;;4973363;28;19930;-62
2022/05/28 02:47:01;;;;;;;;;;;;;;;;;;4973366;28;20379;-61
2022/05/28 02:49:29;;;;;;;;;;;;;;;;;;4973363;28;19929;-63
2022/05/28 02:51:56;;;;;;;;;;;;;;;;;;4973141;28;20020;-61
2022/05/28 02:54:23;;;;;;;;;;;;;;;;;;4973531;28;19922;-61
2022/05/28 02:56:49;;;;;;;;;;;;;;;;;;4973305;28;19925;-62
2022/05/28 02:59:16;;;;;;;;;;;;;;;;;;4987030;28;19928;-62
2022/05/28 03:01:43;;;;;;;;;;;;;;;;;;4992489;28;20008;-63
2022/05/28 03:04:09;;;;;;;;;;;;;;;;;;4992638;28;19926;-62
2022/05/28 03:06:38;;;;;;;;;;;;;;;;;;4993166;28;20409;-62
2022/05/28 03:09:05;;;;;;;;;;;;;;;;;;4992700;28;19921;-62
2022/05/28 03:11:31;;;;;;;;;;;;;;;;;;4992304;28;20172;-62
2022/05/28 03:13:58;;;;;;;;;;;;;;;;;;4992478;28;19922;-62
2022/05/28 03:16:25;;;;;;;;;;;;;;;;;;4992673;28;19969;-62
2022/05/28 03:18:52;;;;;;;;;;;;;;;;;;4992659;28;19922;-62
2022/05/28 03:21:18;;;;;;;;;;;;;;;;;;4992445;28;20349;-63
2022/05/28 03:23:47;;;;;;;;;;;;;;;;;;4992681;28;20294;-63
2022/05/28 03:26:15;;;;;;;;;;;;;;;;;;4992860;28;19922;-63
2022/05/28 03:28:42;;;;;;;;;;;;;;;;;;4992412;28;19922;-63
2022/05/28 03:31:08;;;;;;;;;;;;;;;;;;4994496;28;20283;-63
2022/05/28 03:33:35;;;;;;;;;;;;;;;;;;4996069;28;19922;-63
2022/05/28 03:36:02;;;;;;;;;;;;;;;;;;4995822;28;19922;-63
2022/05/28 03:38:29;;;;;;;;;;;;;;;;;;4996014;28;19928;-62
2022/05/28 03:40:58;;;;;;;;;;;;;;;;;;4995430;28;19921;-62
2022/05/28 03:43:25;;;;;;;;;;;;;;;;;;4995774;28;19933;-63
2022/05/28 03:45:52;;;;;;;;;;;;;;;;;;4995540;28;19929;-63
2022/05/28 03:48:18;;;;;;;;;;;;;;;;;;4995799;28;19921;-63
2022/05/28 03:50:46;;;;;;;;;;;;;;;;;;4995283;28;19922;-62
2022/05/28 03:53:13;;;;;;;;;;;;;;;;;;4995799;28;19921;-62
2022/05/28 03:55:40;;;;;;;;;;;;;;;;;;4995184;28;19922;-62
2022/05/28 03:58:08;;;;;;;;;;;;;;;;;;4991132;28;19922;-63
2022/05/28 04:00:35;;;;;;;;;;;;;;;;;;4975885;28;19922;-63
2022/05/28 04:03:01;;;;;;;;;;;;;;;;;;4976065;28;20004;-62
2022/05/28 04:05:29;;;;;;;;;;;;;;;;;;4975826;28;19929;-62
2022/05/28 04:07:55;;;;;;;;;;;;;;;;;;4975972;28;19922;-62
2022/05/28 04:10:22;;;;;;;;;;;;;;;;;;4975551;28;19998;-62
2022/05/28 04:12:49;;;;;;;;;;;;;;;;;;4975943;28;20393;-62
2022/05/28 04:15:18;;;;;;;;;;;;;;;;;;4975711;28;19968;-62
2022/05/28 04:17:44;;;;;;;;;;;;;;;;;;4975686;28;19922;-62
2022/05/28 04:20:13;;;;;;;;;;;;;;;;;;4975488;28;20024;-62
2022/05/28 04:22:39;;;;;;;;;;;;;;;;;;4975646;28;19929;-62
2022/05/28 04:25:07;;;;;;;;;;;;;;;;;;4975672;28;19933;-63
2022/05/28 04:27:33;;;;;;;;;;;;;;;;;;4975486;28;19928;-61
2022/05/28 04:30:00;;;;;;;;;;;;;;;;;;4975380;28;19922;-61
2022/05/28 04:32:29;;;;;;;;;;;;;;;;;;4974985;28;19937;-60
2022/05/28 04:34:55;;;;;;;;;;;;;;;;;;4975246;28;20009;-61
2022/05/28 04:37:22;;;;;;;;;;;;;;;;;;4999923;23;19922;-60
2022/05/28 04:39:49;;;;;;;;;;;;;;;;;;4995294;28;19929;-59
2022/05/28 04:42:15;;;;;;;;;;;;;;;;;;4993779;28;19980;-60
2022/05/28 04:44:42;;;;;;;;;;;;;;;;;;4995092;28;19928;-60
2022/05/28 04:47:09;;;;;;;;;;;;;;;;;;4994714;28;19922;-59
2022/05/28 04:49:37;;;;;;;;;;;;;;;;;;4995039;28;19922;-61
2022/05/28 04:52:04;;;;;;;;;;;;;;;;;;4994491;28;19941;-59
2022/05/28 04:54:30;;;;;;;;;;;;;;;;;;4994906;28;19971;-60
2022/05/28 04:56:57;;;;;;;;;;;;;;;;;;4994876;28;19929;-58
2022/05/28 04:59:24;;;;;;;;;;;;;;;;;;4994518;28;19925;-60
2022/05/28 05:01:50;;;;;;;;;;;;;;;;;;4994299;28;19922;-60
2022/05/28 05:04:17;;;;;;;;;;;;;;;;;;4994813;28;20017;-60
2022/05/28 05:06:45;;;;;;;;;;;;;;;;;;4994404;28;19928;-60
2022/05/28 05:09:11;;;;;;;;;;;;;;;;;;4994713;28;19921;-59
2022/05/28 05:11:38;;;;;;;;;;;;;;;;;;4993930;28;19929;-60
2022/05/28 05:14:05;;;;;;;;;;;;;;;;;;4994718;28;20275;-60
2022/05/28 05:16:31;;;;;;;;;;;;;;;;;;4994328;28;20387;-60
2022/05/28 05:18:58;;;;;;;;;;;;;;;;;;4994459;28;19921;-59
2022/05/28 05:21:24;;;;;;;;;;;;;;;;;;4993938;28;19941;-60
2022/05/28 05:23:53;;;;;;;;;;;;;;;;;;4994505;28;19921;-59
2022/05/28 05:26:20;;;;;;;;;;;;;;;;;;4994492;28;19928;-59
2022/05/28 05:28:47;;;;;;;;;;;;;;;;;;4994442;28;19921;-60
2022/05/28 05:31:14;;;;;;;;;;;;;;;;;;4993560;28;19925;-60
2022/05/28 05:33:41;;;;;;;;;;;;;;;;;;4994561;28;19926;-60
2022/05/28 05:36:08;;;;;;;;;;;;;;;;;;4994103;28;19921;-60
2022/05/28 05:38:35;;;;;;;;;;;;;;;;;;4994226;28;20005;-60
2022/05/28 05:41:03;;;;;;;;;;;;;;;;;;4993956;28;20302;-60
2022/05/28 05:43:30;;;;;;;;;;;;;;;;;;4994063;28;19929;-60
2022/05/28 05:45:57;;;;;;;;;;;;;;;;;;4993674;28;19952;-60
2022/05/28 05:48:24;;;;;;;;;;;;;;;;;;4993795;28;19921;-60
2022/05/28 05:50:51;;;;;;;;;;;;;;;;;;4993558;28;19944;-60
2022/05/28 05:53:19;;;;;;;;;;;;;;;;;;4993567;28;19929;-60
2022/05/28 05:55:45;;;;;;;;;;;;;;;;;;4994163;28;19925;-61
2022/05/28 05:58:13;;;;;;;;;;;;;;;;;;4993936;28;19989;-59
2022/05/28 06:00:40;;;;;;;;;;;;;;;;;;4993243;28;19933;-61
2022/05/28 06:03:07;;;;;;;;;;;;;;;;;;4993496;28;19922;-61
2022/05/28 06:05:34;;;;;;;;;;;;;;;;;;4993792;28;19921;-60
2022/05/28 06:08:00;;;;;;;;;;;;;;;;;;4993581;28;19944;-60
2022/05/28 06:10:27;;;;;;;;;;;;;;;;;;4993595;28;19988;-60
2022/05/28 06:12:54;;;;;;;;;;;;;;;;;;4993261;28;19976;-60
2022/05/28 06:15:22;;;;;;;;;;;;;;;;;;4993169;28;19968;-60
2022/05/28 06:17:48;;;;;;;;;;;;;;;;;;4993404;28;19929;-61
2022/05/28 06:20:15;;;;;;;;;;;;;;;;;;4993825;28;20405;-60
2022/05/28 06:22:42;;;;;;;;;;;;;;;;;;4993081;28;19944;-60
2022/05/28 06:25:09;;;;;;;;;;;;;;;;;;4993291;28;19922;-59
2022/05/28 06:27:37;;;;;;;;;;;;;;;;;;4993564;28;20008;-60
2022/05/28 06:30:04;;;;;;;;;;;;;;;;;;4993753;28;19922;-59
2022/05/28 06:32:32;;;;;;;;;;;;;;;;;;4992937;28;19944;-60
2022/05/28 06:34:58;;;;;;;;;;;;;;;;;;4993251;28;19921;-60
2022/05/28 06:37:25;;;;;;;;;;;;;;;;;;4993090;28;19953;-60
2022/05/28 06:39:52;;;;;;;;;;;;;;;;;;4993355;28;19921;-60
2022/05/28 06:42:18;;;;;;;;;;;;;;;;;;4992745;28;19922;-61
2022/05/28 06:44:45;;;;;;;;;;;;;;;;;;4993096;28;19922;-61
2022/05/28 06:47:12;;;;;;;;;;;;;;;;;;4992940;28;19928;-61
2022/05/28 06:49:40;;;;;;;;;;;;;;;;;;4993113;28;19922;-60
2022/05/28 06:52:06;;;;;;;;;;;;;;;;;;4992743;28;19921;-60
2022/05/28 06:54:33;;;;;;;;;;;;;;;;;;4993255;28;20016;-60
2022/05/28 06:57:00;;;;;;;;;;;;;;;;;;4993104;28;19922;-60
2022/05/28 06:59:26;;;;;;;;;;;;;;;;;;4993113;28;20306;-59
2022/05/28 07:01:55;;;;;;;;;;;;;;;;;;4992556;28;19922;-60
2022/05/28 07:04:22;;;;;;;;;;;;;;;;;;4993581;28;19922;-59
2022/05/28 07:06:50;;;;;;;;;;;;;;;;;;4996569;28;19926;-59
2022/05/28 07:09:16;;;;;;;;;;;;;;;;;;4996646;28;19922;-59
2022/05/28 07:11:43;;;;;;;;;;;;;;;;;;4996368;28;19922;-58
2022/05/28 07:14:10;;;;;;;;;;;;;;;;;;4996980;28;19953;-58
2022/05/28 07:16:36;;;;;;;;;;;;;;;;;;4996536;28;19922;-59
2022/05/28 07:19:03;;;;;;;;;;;;;;;;;;4996467;28;19921;-58
2022/05/28 07:21:30;;;;;;;;;;;;;;;;;;4996070;28;19922;-59
2022/05/28 07:23:58;;;;;;;;;;;;;;;;;;4996322;28;20272;-59
2022/05/28 07:26:24;;;;;;;;;;;;;;;;;;4996500;28;19926;-59
2022/05/28 07:28:51;;;;;;;;;;;;;;;;;;4996121;28;20020;-60
2022/05/28 07:31:18;;;;;;;;;;;;;;;;;;4996147;28;19921;-59
2022/05/28 07:33:46;;;;;;;;;;;;;;;;;;4996331;28;20441;-59
2022/05/28 07:36:13;;;;;;;;;;;;;;;;;;4996174;28;20330;-58
2022/05/28 07:38:41;;;;;;;;;;;;;;;;;;4995919;28;20000;-58
2022/05/28 07:41:11;;;;;;;;;;;;;;;;;;4996122;28;19961;-59
2022/05/28 07:43:38;;;;;;;;;;;;;;;;;;4995865;28;20000;-59
2022/05/28 07:46:10;;;;;;;;;;;;;;;;;;4996169;28;19949;-59
2022/05/28 07:48:36;;;;;;;;;;;;;;;;;;4995761;28;19929;-59
2022/05/28 07:51:03;;;;;;;;;;;;;;;;;;4995620;28;19922;-60
2022/05/28 07:53:30;;;;;;;;;;;;;;;;;;4995474;28;19946;-60
2022/05/28 07:55:56;;;;;;;;;;;;;;;;;;4995563;28;20016;-60
2022/05/28 07:58:24;;;;;;;;;;;;;;;;;;4995583;28;19921;-59
2022/05/28 08:00:51;;;;;;;;;;;;;;;;;;4995238;28;19921;-59
2022/05/28 08:03:18;;;;;;;;;;;;;;;;;;4995702;28;19922;-58
2022/05/28 08:05:46;;;;;;;;;;;;;;;;;;4995384;28;19944;-58
2022/05/28 08:08:14;;;;;;;;;;;;;;;;;;4995302;28;19921;-59
2022/05/28 08:10:40;;;;;;;;;;;;;;;;;;4995033;28;20026;-59
2022/05/28 08:13:08;;;;;;;;;;;;;;;;;;4995214;28;19921;-59
2022/05/28 08:15:36;;;;;;;;;;;;;;;;;;4995289;28;19921;-59
2022/05/28 08:18:03;;;;;;;;;;;;;;;;;;4994989;28;19922;-59
2022/05/28 08:23:22;;;;;;;;;;;;;;;;;;4959815;28;19922;-59
2022/05/28 08:25:49;;;;;;;;;;;;;;;;;;4994971;28;19921;-59
2022/05/28 08:28:17;;;;;;;;;;;;;;;;;;4995112;28;20315;-58
2022/05/28 08:30:45;;;;;;;;;;;;;;;;;;4994491;28;19929;-59
2022/05/28 08:33:13;;;;;;;;;;;;;;;;;;4995546;28;20286;-60
2022/05/28 08:35:40;;;;;;;;;;;;;;;;;;4994845;28;19922;-59
2022/05/28 08:38:08;;;;;;;;;;;;;;;;;;4994811;28;20282;-58
2022/05/28 08:40:38;;;;;;;;;;;;;;;;;;4995014;28;20012;-60
2022/05/28 08:43:05;;;;;;;;;;;;;;;;;;4994498;28;19922;-60
2022/05/28 08:45:33;;;;;;;;;;;;;;;;;;4994543;28;19968;-60
2022/05/28 08:48:01;;;;;;;;;;;;;;;;;;4994398;28;19922;-60
2022/05/28 08:50:28;;;;;;;;;;;;;;;;;;4994699;28;19921;-60
2022/05/28 08:53:01;;;;;;;;;;;;;;;;;;4994603;28;20283;-60
2022/05/28 08:55:28;;;;;;;;;;;;;;;;;;4994657;28;19932;-60
2022/05/28 08:57:58;;;;;;;;;;;;;;;;;;4994234;28;19930;-60
2022/05/28 09:00:30;;;;;;;;;;;;;;;;;;4994437;28;19969;-60
2022/05/28 09:03:01;;;;;;;;;;;;;;;;;;4994060;28;19925;-60
2022/05/28 09:05:31;;;;;;;;;;;;;;;;;;4994381;28;19925;-60
2022/05/28 09:07:59;;;;;;;;;;;;;;;;;;4994269;28;20374;-60
2022/05/28 09:10:26;;;;;;;;;;;;;;;;;;4994212;28;19925;-60
2022/05/28 09:12:55;;;;;;;;;;;;;;;;;;4993833;28;19945;-60
2022/05/28 09:15:22;;;;;;;;;;;;;;;;;;4993911;28;19944;-60
2022/05/28 09:17:52;;;;;;;;;;;;;;;;;;4993910;28;19921;-59
2022/05/28 09:20:21;;;;;;;;;;;;;;;;;;4993664;28;20032;-60
2022/05/28 09:22:49;;;;;;;;;;;;;;;;;;4994003;28;20294;-60
2022/05/28 09:25:17;;;;;;;;;;;;;;;;;;4993951;28;19928;-60
2022/05/28 09:27:48;;;;;;;;;;;;;;;;;;4993673;28;19977;-60
2022/05/28 09:30:22;;;;;;;;;;;;;;;;;;4993584;28;19928;-60
2022/05/28 09:33:14;;;;;;;;;;;;;;;;;;4994070;28;19922;-60
2022/05/28 09:35:47;;;;;;;;;;;;;;;;;;4993809;28;20290;-59
2022/05/28 09:38:20;;;;;;;;;;;;;;;;;;4993732;28;20291;-60
2022/05/28 09:40:49;;;;;;;;;;;;;;;;;;4993408;28;19996;-60
2022/05/28 09:43:27;;;;;;;;;;;;;;;;;;4993706;28;19929;-59
2022/05/28 09:46:00;;;;;;;;;;;;;;;;;;4993777;28;20179;-60
2022/05/28 09:48:28;;;;;;;;;;;;;;;;;;4993760;28;19921;-59
2022/05/28 09:50:55;;;;;;;;;;;;;;;;;;4993297;28;19921;-60
2022/05/28 09:56:11;;;;;;;;;;;;;;;;;;4993847;28;19928;-60
2022/05/28 09:58:40;;;;;;;;;;;;;;;;;;4993332;28;19955;-59
2022/05/28 10:01:09;;;;;;;;;;;;;;;;;;4993356;28;19928;-60
2022/05/28 10:06:23;;;;;;;;;;;;;;;;;;4993698;28;19976;-58
2022/05/28 10:08:51;;;;;;;;;;;;;;;;;;4993480;28;19925;-58
2022/05/28 10:11:19;;;;;;;;;;;;;;;;;;4993591;28;20383;-55
2022/05/28 10:13:47;;;;;;;;;;;;;;;;;;4993171;28;19976;-57
2022/05/28 10:16:15;;;;;;;;;;;;;;;;;;4993620;28;19943;-60
2022/05/28 10:18:43;;;;;;;;;;;;;;;;;;4993446;28;19922;-58
2022/05/28 10:21:11;;;;;;;;;;;;;;;;;;4993705;28;19926;-57
2022/05/28 10:23:39;;;;;;;;;;;;;;;;;;4993714;28;19925;-59
2022/05/28 10:26:11;;;;;;;;;;;;;;;;;;4994003;28;19922;-58
2022/05/28 10:28:45;;;;;;;;;;;;;;;;;;4993463;28;19925;-58
2022/05/28 10:31:16;;;;;;;;;;;;;;;;;;4993274;28;20284;-58
2022/05/28 10:33:44;;;;;;;;;;;;;;;;;;4993476;28;19921;-58
2022/05/28 10:36:15;;;;;;;;;;;;;;;;;;4993163;28;19921;-59
2022/05/28 10:38:41;;;;;;;;;;;;;;;;;;5031795;23;19928;-62
2022/05/28 10:41:16;;;;;;;;;;;;;;;;;;5035013;28;19932;-62
2022/05/28 10:43:43;;;;;;;;;;;;;;;;;;5036839;28;20396;-62
2022/05/28 10:46:12;;;;;;;;;;;;;;;;;;5036725;28;20367;-63
2022/05/28 10:48:47;;;;;;;;;;;;;;;;;;5037010;28;20356;-63
2022/05/28 10:51:19;;;;;;;;;;;;;;;;;;5036617;28;20457;-59
2022/05/28 10:54:02;;;;;;;;;;;;;;;;;;5036963;28;20373;-60
2022/05/28 10:56:40;;;;;;;;;;;;;;;;;;5036561;28;19921;-59
2022/05/28 10:59:13;;;;;;;;;;;;;;;;;;5023924;28;19925;-59
2022/05/28 11:01:41;;;;;;;;;;;;;;;;;;5016528;28;19983;-61
2022/05/28 11:04:19;;;;;;;;;;;;;;;;;;5016634;28;19956;-61
2022/05/28 11:07:01;;;;;;;;;;;;;;;;;;5016697;28;19921;-59
2022/05/28 11:09:35;;;;;;;;;;;;;;;;;;5016307;28;19987;-60
2022/05/28 11:12:10;;;;;;;;;;;;;;;;;;5016129;28;19928;-60
2022/05/28 11:15:02;;;;;;;;;;;;;;;;;;5016405;28;19925;-59
2022/05/28 11:17:42;;;;;;;;;;;;;;;;;;5016329;28;19921;-59
2022/05/28 11:20:16;;;;;;;;;;;;;;;;;;5016057;28;19925;-60
2022/05/28 11:22:56;;;;;;;;;;;;;;;;;;5016246;28;20294;-60
2022/05/28 11:25:25;;;;;;;;;;;;;;;;;;5016151;28;19921;-62
2022/05/28 11:27:59;;;;;;;;;;;;;;;;;;5016148;28;19921;-63
2022/05/28 11:30:29;;;;;;;;;;;;;;;;;;5015825;28;19928;-63
2022/05/28 11:32:59;;;;;;;;;;;;;;;;;;5015935;28;20279;-62
2022/05/28 11:35:33;;;;;;;;;;;;;;;;;;5016065;28;19943;-63
2022/05/28 11:38:02;;;;;;;;;;;;;;;;;;5016026;28;19921;-61
2022/05/28 11:40:30;;;;;;;;;;;;;;;;;;5015518;28;19988;-63
2022/05/28 11:42:59;;;;;;;;;;;;;;;;;;5015754;28;19928;-61
2022/05/28 11:45:33;;;;;;;;;;;;;;;;;;5015615;28;20302;-60
2022/05/28 11:48:02;;;;;;;;;;;;;;;;;;5015979;28;19921;-59
2022/05/28 11:53:21;;;;;;;;;;;;;;;;;;5015797;28;20060;-60
2022/05/28 11:55:49;;;;;;;;;;;;;;;;;;5015351;28;20006;-61
2022/05/28 11:58:19;;;;;;;;;;;;;;;;;;5015881;28;19928;-58
2022/05/28 12:00:50;;;;;;;;;;;;;;;;;;5014998;28;19921;-59
2022/05/28 12:03:18;;;;;;;;;;;;;;;;;;5015887;28;20020;-57
2022/05/28 12:05:48;;;;;;;;;;;;;;;;;;5015283;28;19929;-57
2022/05/28 12:08:23;;;;;;;;;;;;;;;;;;5015863;28;19949;-59
2022/05/28 12:10:52;;;;;;;;;;;;;;;;;;5015219;28;19921;-61
2022/05/28 12:13:30;;;;;;;;;;;;;;;;;;5015297;28;19932;-63
2022/05/28 12:16:03;;;;;;;;;;;;;;;;;;5014863;28;20024;-60
2022/05/28 12:18:30;;;;;;;;;;;;;;;;;;5015408;28;19927;-58
2022/05/28 12:20:58;;;;;;;;;;;;;;;;;;5014433;28;19921;-59
2022/05/28 12:23:29;;;;;;;;;;;;;;;;;;5014927;28;19968;-59
2022/05/28 12:25:55;;;;;;;;;;;;;;;;;;5014857;28;19929;-60
2022/05/28 12:28:29;;;;;;;;;;;;;;;;;;5014807;28;19925;-60
2022/05/28 12:30:58;;;;;;;;;;;;;;;;;;5014563;28;19925;-59
2022/05/28 12:33:27;;;;;;;;;;;;;;;;;;5014858;28;19928;-60
2022/05/28 12:35:57;;;;;;;;;;;;;;;;;;5014805;28;19921;-60
2022/05/28 12:38:36;;;;;;;;;;;;;;;;;;5014676;28;19928;-58
2022/05/28 12:41:04;;;;;;;;;;;;;;;;;;5014360;28;19927;-58
2022/05/28 12:43:33;;;;;;;;;;;;;;;;;;5014579;28;19932;-59
2022/05/28 12:46:12;;;;;;;;;;;;;;;;;;5014317;28;20397;-57
2022/05/28 12:48:39;;;;;;;;;;;;;;;;;;5014357;28;19933;-59
2022/05/28 12:51:14;;;;;;;;;;;;;;;;;;5013828;28;20433;-59
2022/05/28 12:53:49;;;;;;;;;;;;;;;;;;5014430;28;19922;-57
2022/05/28 12:56:22;;;;;;;;;;;;;;;;;;5014413;28;19921;-58
2022/05/28 12:58:50;;;;;;;;;;;;;;;;;;5004662;28;19925;-60
2022/05/28 13:01:20;;;;;;;;;;;;;;;;;;4994016;28;19922;-59
2022/05/28 13:03:47;;;;;;;;;;;;;;;;;;4994058;28;19922;-59
2022/05/28 13:06:16;;;;;;;;;;;;;;;;;;4994461;28;19921;-58
2022/05/28 13:08:45;;;;;;;;;;;;;;;;;;4994548;28;19921;-57
2022/05/28 13:11:22;;;;;;;;;;;;;;;;;;4993839;28;19926;-56
2022/05/28 13:14:03;;;;;;;;;;;;;;;;;;4994593;28;19976;-59
2022/05/28 13:16:34;;;;;;;;;;;;;;;;;;4994270;28;19922;-58
2022/05/28 13:19:24;;;;;;;;;;;;;;;;;;4994719;28;19921;-61
2022/05/28 13:21:57;;;;;;;;;;;;;;;;;;4993960;28;20016;-60
2022/05/28 13:24:41;;;;;;;;;;;;;;;;;;4994248;28;20294;-59
2022/05/28 13:27:13;;;;;;;;;;;;;;;;;;4994136;28;19921;-59
2022/05/28 13:29:54;;;;;;;;;;;;;;;;;;4994165;28;19922;-57
2022/05/28 13:32:23;;;;;;;;;;;;;;;;;;4994047;28;19922;-59
2022/05/28 13:34:58;;;;;;;;;;;;;;;;;;4993834;28;19922;-58
2022/05/28 13:37:25;;;;;;;;;;;;;;;;;;4994035;28;20272;-58
2022/05/28 13:39:55;;;;;;;;;;;;;;;;;;4993759;28;19922;-58
2022/05/28 13:42:22;;;;;;;;;;;;;;;;;;4993732;28;19922;-58
2022/05/28 13:44:52;;;;;;;;;;;;;;;;;;4993880;28;20302;-57
2022/05/28 13:47:24;;;;;;;;;;;;;;;;;;4993436;28;19926;-58
2022/05/28 13:49:53;;;;;;;;;;;;;;;;;;4993586;28;19922;-58
2022/05/28 13:52:20;;;;;;;;;;;;;;;;;;4993280;28;19922;-58
2022/05/28 13:54:53;;;;;;;;;;;;;;;;;;4993515;28;19921;-60
2022/05/28 13:57:21;;;;;;;;;;;;;;;;;;4993319;28;20004;-60
2022/05/28 13:59:49;;;;;;;;;;;;;;;;;;5011635;28;20267;-56
2022/05/28 14:02:20;;;;;;;;;;;;;;;;;;5012862;28;19983;-56
2022/05/28 14:04:47;;;;;;;;;;;;;;;;;;5013173;28;19922;-57
2022/05/28 14:07:21;;;;;;;;;;;;;;;;;;5012947;28;19922;-58
2022/05/28 14:09:48;;;;;;;;;;;;;;;;;;5013242;28;19925;-59
2022/05/28 14:12:15;;;;;;;;;;;;;;;;;;5012375;28;20330;-58
2022/05/28 14:14:44;;;;;;;;;;;;;;;;;;5013121;28;20405;-59
2022/05/28 14:17:18;;;;;;;;;;;;;;;;;;5012570;28;19925;-58
2022/05/28 14:19:48;;;;;;;;;;;;;;;;;;5012828;28;19921;-59
2022/05/28 14:22:20;;;;;;;;;;;;;;;;;;5012279;28;19921;-59
2022/05/28 14:24:47;;;;;;;;;;;;;;;;;;5012762;28;19928;-60
2022/05/28 14:27:17;;;;;;;;;;;;;;;;;;5013512;28;19921;-61
2022/05/28 14:29:45;;;;;;;;;;;;;;;;;;5012907;28;19976;-57
2022/05/28 14:32:13;;;;;;;;;;;;;;;;;;5012075;28;19929;-57
2022/05/28 14:34:41;;;;;;;;;;;;;;;;;;5012765;28;19925;-58
2022/05/28 14:37:09;;;;;;;;;;;;;;;;;;5012455;28;20263;-59
2022/05/28 14:39:42;;;;;;;;;;;;;;;;;;5012590;28;19925;-59
2022/05/28 14:42:10;;;;;;;;;;;;;;;;;;5012331;28;19921;-60
2022/05/28 14:44:38;;;;;;;;;;;;;;;;;;5012622;28;19921;-58
2022/05/28 14:47:11;;;;;;;;;;;;;;;;;;5012740;28;19928;-60
2022/05/28 14:49:38;;;;;;;;;;;;;;;;;;5012740;28;19921;-57
2022/05/28 14:52:07;;;;;;;;;;;;;;;;;;5012086;28;19968;-60
2022/05/28 14:54:37;;;;;;;;;;;;;;;;;;5012793;28;19922;-60
2022/05/28 14:57:05;;;;;;;;;;;;;;;;;;5013103;28;20353;-60
2022/05/28 14:59:36;;;;;;;;;;;;;;;;;;4996869;28;19922;-60
2022/05/28 15:02:16;;;;;;;;;;;;;;;;;;4992627;28;19922;-60
2022/05/28 15:04:43;;;;;;;;;;;;;;;;;;4993218;28;19928;-60
2022/05/28 15:07:19;;;;;;;;;;;;;;;;;;4992817;28;19996;-59
2022/05/28 15:09:50;;;;;;;;;;;;;;;;;;4993210;28;19922;-60
2022/05/28 15:12:19;;;;;;;;;;;;;;;;;;4992474;28;19976;-58
2022/05/28 15:14:46;;;;;;;;;;;;;;;;;;4993012;28;19928;-60
2022/05/28 15:17:13;;;;;;;;;;;;;;;;;;4993197;28;19945;-59
2022/05/28 15:19:39;;;;;;;;;;;;;;;;;;4992914;28;19953;-59
2022/05/28 15:22:12;;;;;;;;;;;;;;;;;;4992563;28;19976;-59
2022/05/28 15:24:39;;;;;;;;;;;;;;;;;;4992697;28;19921;-60
2022/05/28 15:27:09;;;;;;;;;;;;;;;;;;4995142;28;19922;-59
2022/05/28 15:29:36;;;;;;;;;;;;;;;;;;4996694;28;19926;-60
2022/05/28 15:32:03;;;;;;;;;;;;;;;;;;4996089;28;20291;-60
2022/05/28 15:34:30;;;;;;;;;;;;;;;;;;4996520;28;20295;-58
2022/05/28 15:39:40;;;;;;;;;;;;;;;;;;4996357;28;19928;-60
2022/05/28 15:42:09;;;;;;;;;;;;;;;;;;4995639;28;19922;-59
2022/05/28 15:44:35;;;;;;;;;;;;;;;;;;4995989;28;19921;-59
2022/05/28 15:47:02;;;;;;;;;;;;;;;;;;4995734;28;19933;-56
2022/05/28 15:49:29;;;;;;;;;;;;;;;;;;4995662;28;20016;-59
2022/05/28 15:51:56;;;;;;;;;;;;;;;;;;4995432;28;19922;-57
2022/05/28 15:54:22;;;;;;;;;;;;;;;;;;4995460;28;19968;-58
2022/05/28 15:56:50;;;;;;;;;;;;;;;;;;4995859;28;19922;-59
2022/05/28 15:59:20;;;;;;;;;;;;;;;;;;5009147;28;19921;-62
2022/05/28 16:01:47;;;;;;;;;;;;;;;;;;5015046;28;20008;-60
2022/05/28 16:04:13;;;;;;;;;;;;;;;;;;5015149;28;19929;-60
2022/05/28 16:06:40;;;;;;;;;;;;;;;;;;5015271;28;19921;-60
2022/05/28 16:09:06;;;;;;;;;;;;;;;;;;5015098;28;20390;-60
2022/05/28 16:11:36;;;;;;;;;;;;;;;;;;5014933;28;19927;-60
2022/05/28 16:14:03;;;;;;;;;;;;;;;;;;5015171;28;19925;-60
2022/05/28 16:16:31;;;;;;;;;;;;;;;;;;5015366;28;19928;-60
2022/05/28 16:18:59;;;;;;;;;;;;;;;;;;5015981;28;19925;-59
2022/05/28 16:21:25;;;;;;;;;;;;;;;;;;5014865;28;20004;-61
2022/05/28 16:23:52;;;;;;;;;;;;;;;;;;5014753;28;19921;-59
2022/05/28 16:26:21;;;;;;;;;;;;;;;;;;5015031;28;19928;-60
2022/05/28 16:28:48;;;;;;;;;;;;;;;;;;5014670;28;19921;-60
2022/05/28 16:31:16;;;;;;;;;;;;;;;;;;5014340;28;20309;-59
2022/05/28 16:33:44;;;;;;;;;;;;;;;;;;5014610;28;19921;-60
2022/05/28 16:36:11;;;;;;;;;;;;;;;;;;5014822;28;19928;-60
2022/05/28 16:38:38;;;;;;;;;;;;;;;;;;5013605;28;19964;-64
2022/05/28 16:41:05;;;;;;;;;;;;;;;;;;5014437;28;20184;-60
2022/05/28 16:43:32;;;;;;;;;;;;;;;;;;5014564;28;19925;-64
2022/05/28 16:45:59;;;;;;;;;;;;;;;;;;5012649;28;20450;-65
2022/05/28 16:48:26;;;;;;;;;;;;;;;;;;5012731;28;19921;-64
2022/05/28 16:50:55;;;;;;;;;;;;;;;;;;5013781;28;19925;-60
2022/05/28 16:53:21;;;;;;;;;;;;;;;;;;5014071;28;19921;-63
2022/05/28 16:55:48;;;;;;;;;;;;;;;;;;5013986;28;19932;-62
2022/05/28 16:58:15;;;;;;;;;;;;;;;;;;5013896;28;19922;-63
2022/05/28 17:00:42;;;;;;;;;;;;;;;;;;5014058;28;19928;-63
2022/05/28 17:03:09;;;;;;;;;;;;;;;;;;5014830;28;19927;-64
2022/05/28 17:05:36;;;;;;;;;;;;;;;;;;5014092;28;19929;-65
2022/05/28 17:08:04;;;;;;;;;;;;;;;;;;5014425;28;19925;-63
2022/05/28 17:10:31;;;;;;;;;;;;;;;;;;5013343;28;20302;-63